Time;durP1;ratioP1;P1;durP2;ratioP2;P2;SDS_P1;SDS_P2;PMS_P1;PMS_P2;Temp;Humidity;BMP_temperature;BMP_pressure;BME280_temperature;BME280_humidity;BME280_pressure;Samples;Min_cycle;Max_cycle;Signal;HPM_P1;HPM_P2
2021/10/20 04:41:23;;;;;;;17.17;8.35;;;;;;;5.83;52.92;143695.63;1812378;79;28075;-59
2021/10/20 04:43:58;;;;;;;13.05;7.50;;;;;;;5.89;52.70;143709.37;1811430;77;28445;-58
2021/10/20 04:46:52;;;;;;;21.00;7.92;;;;;;;6.05;52.31;143748.14;1818221;77;22160;-60
2021/10/20 04:49:26;;;;;;;12.75;6.05;;;;;;;6.04;52.20;143746.89;1834989;77;22127;-61
2021/10/20 04:52:02;;;;;;;9.65;5.97;;;;;;;6.08;52.27;143756.91;1829080;77;22132;-59
2021/10/20 04:54:37;;;;;;;15.53;7.00;;;;;;;6.08;52.22;143756.91;1817915;77;22612;-60
2021/10/20 04:57:12;;;;;;;16.25;9.35;;;;;;;6.12;52.36;143764.41;1802224;77;28006;-62
2021/10/20 04:59:47;;;;;;;12.95;7.05;;;;;;;6.16;52.33;143774.41;1818419;77;22196;-61
2021/10/20 05:02:21;;;;;;;13.55;7.28;;;;;;;6.13;52.49;143768.17;1818737;77;22176;-58
2021/10/20 05:05:05;;;;;;;15.25;7.40;;;;;;;6.19;52.47;143783.14;1819292;77;22176;-55
2021/10/20 05:07:47;;;;;;;15.48;8.10;;;;;;;6.23;52.55;143793.16;1818951;77;22261;-61
2021/10/20 05:10:26;;;;;;;18.35;8.53;;;;;;;6.23;52.76;143791.88;1818454;77;22191;-60
2021/10/20 05:13:19;;;;;;;20.43;9.23;;;;;;;6.25;52.91;143798.13;1804919;77;28125;-62
2021/10/20 05:15:54;;;;;;;20.00;8.83;;;;;;;6.32;52.89;143813.16;1819295;77;22574;-58
2021/10/20 05:18:29;;;;;;;16.85;7.58;;;;;;;6.33;53.02;143815.62;1818237;77;22606;-58
2021/10/20 05:21:03;;;;;;;19.60;8.33;;;;;;;6.36;53.04;143823.11;1834879;77;22136;-60
2021/10/20 05:23:38;;;;;;;16.55;7.47;;;;;;;6.39;53.06;143831.89;1834946;77;22567;-56
2021/10/20 05:26:13;;;;;;;18.80;8.40;;;;;;;6.42;53.16;143838.14;1834953;77;22210;-61
2021/10/20 05:28:48;;;;;;;15.95;8.20;;;;;;;6.43;53.21;143840.63;1825434;77;22274;-61
2021/10/20 05:31:43;;;;;;;19.90;8.53;;;;;;;6.49;53.29;143855.66;1819053;77;22165;-61
2021/10/20 05:34:18;;;;;;;17.50;8.70;;;;;;;6.56;53.30;143871.88;1834966;77;22630;-58
2021/10/20 05:36:52;;;;;;;20.95;8.68;;;;;;;6.65;53.07;143895.63;1834955;77;22136;-59
2021/10/20 05:39:27;;;;;;;17.92;8.55;;;;;;;6.76;52.99;143921.88;1853500;77;22127;-59
2021/10/20 05:42:02;;;;;;;19.77;8.43;;;;;;;6.83;52.97;143938.16;1853499;77;22163;-60
2021/10/20 05:44:37;;;;;;;20.57;9.50;;;;;;;6.89;53.04;143953.14;1834929;77;22136;-61
2021/10/20 05:47:19;;;;;;;21.00;9.65;;;;;;;6.91;53.07;143958.16;1834091;77;22189;-61
2021/10/20 05:49:54;;;;;;;20.17;10.10;;;;;;;6.94;53.05;143965.64;1814789;77;28157;-61
2021/10/20 05:52:29;;;;;;;15.80;9.08;;;;;;;7.03;52.98;143988.17;1817170;78;22157;-62
2021/10/20 05:55:05;;;;;;;23.45;10.23;;;;;;;7.01;53.03;143981.91;1826646;77;22164;-60
2021/10/20 05:57:58;;;;;;;23.22;10.70;;;;;;;7.05;53.02;143993.19;1829708;77;22164;-57
2021/10/20 06:00:41;;;;;;;24.87;10.50;;;;;;;7.13;53.08;144011.94;1815210;77;22172;-59
2021/10/20 06:03:35;;;;;;;23.90;11.03;;;;;;;7.18;53.18;144025.69;1834859;77;22153;-60
2021/10/20 06:06:16;;;;;;;23.50;11.68;;;;;;;7.21;53.12;144031.94;1834158;77;22168;-60
2021/10/20 06:08:51;;;;;;;22.73;11.40;;;;;;;7.27;53.09;144045.69;1834591;77;22136;-56
2021/10/20 06:11:25;;;;;;;26.37;12.80;;;;;;;7.34;53.22;144063.22;1820915;77;22219;-58
2021/10/20 06:14:01;;;;;;;27.65;12.40;;;;;;;7.51;53.26;144105.75;1814306;77;22148;-62
2021/10/20 06:16:41;;;;;;;28.62;13.55;;;;;;;7.77;53.17;144168.31;1853282;77;22156;-55
2021/10/20 06:19:35;;;;;;;30.68;14.70;;;;;;;8.04;52.94;144235.91;1853402;77;22577;-61
2021/10/20 06:22:10;;;;;;;26.25;12.58;;;;;;;8.73;52.00;144403.72;1853139;77;22588;-59
2021/10/20 06:24:45;;;;;;;29.50;15.78;;;;;;;9.50;50.53;144591.63;1819239;77;28320;-57
2021/10/20 06:27:20;;;;;;;30.37;14.68;;;;;;;10.40;49.20;144812.28;1853402;77;22554;-63
2021/10/20 06:29:55;;;;;;;25.57;14.03;;;;;;;11.18;47.39;145002.98;1834850;77;22601;-65
2021/10/20 06:32:31;;;;;;;29.45;16.15;;;;;;;10.74;48.44;144896.34;1818876;77;38737;-56
2021/10/20 06:35:10;;;;;;;30.20;16.12;;;;;;;10.10;49.59;144739.55;1819311;77;28101;-63
2021/10/20 06:37:48;;;;;;;30.55;15.53;;;;;;;9.61;51.32;144619.17;1834908;77;22157;-61
2021/10/20 06:40:42;;;;;;;30.52;16.42;;;;;;;9.32;52.74;144549.02;1834793;77;22160;-63
2021/10/20 06:43:23;;;;;;;28.95;15.58;;;;;;;9.43;53.31;144574.06;1833842;77;22594;-62
2021/10/20 06:46:02;;;;;;;25.92;14.60;;;;;;;9.78;52.95;144661.80;1853501;77;22136;-62
2021/10/20 06:48:34;;;;;;;26.90;14.75;;;;;;;10.08;52.50;144734.52;1834951;77;22164;-63
2021/10/20 06:51:10;;;;;;;30.23;14.83;;;;;;;10.07;52.76;144730.73;1834674;77;22137;-64
2021/10/20 06:53:45;;;;;;;31.97;16.82;;;;;;;9.99;53.46;144713.19;1834956;77;22140;-59
2021/10/20 06:56:19;;;;;;;26.95;13.55;;;;;;;9.70;54.50;144640.50;1834951;77;22132;-58
2021/10/20 06:59:14;;;;;;;27.32;15.98;;;;;;;9.59;55.40;144614.16;1834819;77;22132;-61
2021/10/20 07:01:48;;;;;;;29.00;15.05;;;;;;;9.53;55.82;144599.13;1834656;77;22215;-62
2021/10/20 07:04:26;;;;;;;30.72;16.75;;;;;;;9.52;56.31;144596.64;1834680;77;22636;-63
2021/10/20 07:07:20;;;;;;;29.87;17.57;;;;;;;9.58;56.96;144611.66;1834785;77;22577;-61
2021/10/20 07:09:56;;;;;;;29.18;17.42;;;;;;;9.51;57.36;144594.11;1853490;77;22136;-61
2021/10/20 07:12:50;;;;;;;31.65;17.50;;;;;;;9.40;58.23;144566.56;1853089;77;22155;-62
2021/10/20 07:15:25;;;;;;;33.38;19.35;;;;;;;9.57;58.48;144609.17;1837644;77;39490;-62
2021/10/20 07:18:21;;;;;;;30.68;17.85;;;;;;;9.73;58.73;144649.27;1853521;77;22549;-63
2021/10/20 07:20:56;;;;;;;34.33;17.65;;;;;;;9.93;58.70;144696.91;1853406;77;22205;-62
2021/10/20 07:23:32;;;;;;;28.75;17.90;;;;;;;10.35;58.13;144801.00;1819075;77;28393;-58
2021/10/20 07:26:27;;;;;;;28.73;15.85;;;;;;;10.94;57.08;144945.28;1853370;77;22565;-57
2021/10/20 07:29:03;;;;;;;26.00;16.48;;;;;;;11.15;56.24;144995.47;1832426;78;28448;-60
2021/10/20 07:31:44;;;;;;;27.52;17.75;;;;;;;11.09;56.58;144981.62;1833850;77;22577;-62
2021/10/20 07:34:38;;;;;;;29.20;17.65;;;;;;;11.35;56.31;145045.66;1834872;77;22168;-62
2021/10/20 07:37:19;;;;;;;33.25;16.52;;;;;;;11.46;56.09;145072.00;1834030;77;22206;-58
2021/10/20 07:39:54;;;;;;;29.92;16.07;;;;;;;11.69;55.65;145129.73;1853471;77;22155;-63
2021/10/20 07:42:37;;;;;;;30.72;17.80;;;;;;;12.07;55.04;145221.45;1829978;77;22168;-65
2021/10/20 07:45:31;;;;;;;31.68;18.30;;;;;;;12.19;54.75;145251.59;1853407;77;22143;-60
2021/10/20 07:48:06;;;;;;;26.42;17.48;;;;;;;12.62;53.89;145357.11;1834880;77;22148;-59
2021/10/20 07:50:42;;;;;;;31.48;17.40;;;;;;;13.19;52.84;145496.58;1834917;77;22168;-62
2021/10/20 07:53:23;;;;;;;32.23;18.60;;;;;;;13.85;51.09;145658.80;1852721;77;22614;-61
2021/10/20 07:56:17;;;;;;;33.95;18.52;;;;;;;14.13;50.96;145726.72;1844525;77;22140;-62
2021/10/20 07:59:12;;;;;;;28.12;16.37;;;;;;;15.11;49.06;145968.31;1820057;77;22179;-62
2021/10/20 08:02:07;;;;;;;26.05;15.83;;;;;;;15.97;47.39;146181.16;1816826;77;22610;-60
2021/10/20 08:04:42;;;;;;;29.15;18.07;;;;;;;16.78;45.65;146379.02;1830236;77;22179;-57
2021/10/20 08:07:35;;;;;;;30.45;16.90;;;;;;;17.20;44.95;146483.66;1821839;77;22262;-62
2021/10/20 08:10:17;;;;;;;25.85;16.67;;;;;;;17.53;44.38;146565.61;1830431;77;22183;-62
2021/10/20 08:12:59;;;;;;;24.92;16.35;;;;;;;17.62;44.53;146587.02;1833779;77;22236;-63
2021/10/20 08:15:53;;;;;;;30.20;16.80;;;;;;;17.57;44.27;146575.66;1834924;77;22136;-60
2021/10/20 08:18:48;;;;;;;25.60;17.82;;;;;;;17.04;45.70;146444.53;1821988;77;22612;-57
2021/10/20 08:21:22;;;;;;;27.75;18.48;;;;;;;17.04;46.07;146444.53;1834852;77;22199;-62
2021/10/20 08:23:57;;;;;;;30.55;17.30;;;;;;;16.75;46.86;146372.67;1843058;77;22633;-61
2021/10/20 08:26:33;;;;;;;28.55;19.90;;;;;;;16.28;48.29;146258.03;1837719;77;28012;-60
2021/10/20 08:29:33;;;;;;;28.60;18.50;;;;;;;15.87;49.79;146154.72;1843010;77;22609;-59
2021/10/20 08:32:09;;;;;;;33.20;21.07;;;;;;;15.75;50.23;146125.78;1819154;77;28078;-61
2021/10/20 08:34:50;;;;;;;38.85;20.02;;;;;;;15.56;51.14;146079.11;1853295;77;22155;-59
2021/10/20 08:37:25;;;;;;;32.35;21.30;;;;;;;15.54;51.55;146074.06;1819287;77;29134;-60
2021/10/20 08:40:00;;;;;;;32.90;19.42;;;;;;;15.59;52.07;146086.66;1834434;77;22607;-60
2021/10/20 08:42:36;;;;;;;31.60;20.00;;;;;;;15.51;52.41;146066.52;1818301;77;22172;-62
2021/10/20 08:45:11;;;;;;;30.82;20.68;;;;;;;15.41;52.75;146042.59;1805318;77;28092;-60
2021/10/20 08:47:47;;;;;;;30.23;18.73;;;;;;;15.47;52.89;146056.44;1817914;77;22219;-62
2021/10/20 08:50:44;;;;;;;37.20;20.57;;;;;;;15.07;53.86;145958.28;1801812;77;28125;-57
2021/10/20 08:53:38;;;;;;;26.02;19.90;;;;;;;14.67;55.27;145860.09;1802894;77;28283;-60
2021/10/20 08:56:19;;;;;;;30.52;18.30;;;;;;;14.65;55.50;145855.06;1824564;77;22188;-61
2021/10/20 08:58:54;;;;;;;32.48;19.52;;;;;;;14.59;55.84;145839.97;1821254;77;22144;-63
2021/10/20 09:01:48;;;;;;;37.38;19.87;;;;;;;14.39;56.40;145792.09;1820401;77;22191;-58
2021/10/20 09:04:23;;;;;;;29.48;18.67;;;;;;;14.25;56.89;145758.16;1823540;77;22137;-61
2021/10/20 09:07:01;;;;;;;27.60;18.27;;;;;;;13.98;57.62;145690.23;1834897;77;22136;-60
2021/10/20 09:09:34;;;;;;;34.45;18.98;;;;;;;13.89;58.07;145668.83;1834969;77;22156;-58
2021/10/20 09:12:30;;;;;;;31.68;19.02;;;;;;;13.73;58.65;145629.86;1833901;77;22602;-63
2021/10/20 09:15:11;;;;;;;28.17;18.77;;;;;;;13.68;58.90;145617.28;1834701;77;22157;-64
2021/10/20 09:17:53;;;;;;;32.83;20.80;;;;;;;13.67;59.24;145614.80;1817650;77;22161;-58
2021/10/20 09:20:47;;;;;;;29.02;18.25;;;;;;;13.72;59.30;145626.12;1829033;77;22274;-62
2021/10/20 09:23:41;;;;;;;32.25;19.50;;;;;;;13.66;59.55;145613.55;1827962;77;22163;-58
2021/10/20 09:26:16;;;;;;;34.48;20.90;;;;;;;13.49;60.11;145570.80;1834826;77;22232;-60
2021/10/20 09:29:23;;;;;;;33.65;19.65;;;;;;;13.37;60.83;145540.61;1836077;77;22200;-58
2021/10/20 09:32:01;;;;;;;30.72;19.23;;;;;;;13.40;61.09;145548.16;1834181;77;22601;-59
2021/10/20 09:34:43;;;;;;;31.77;19.55;;;;;;;13.44;61.23;145558.22;1833085;77;22682;-59
2021/10/20 09:37:39;;;;;;;31.02;18.98;;;;;;;13.58;61.27;145592.14;1834478;77;22578;-59
2021/10/20 09:40:14;;;;;;;31.93;18.82;;;;;;;13.71;61.03;145624.81;1852978;77;22160;-62
2021/10/20 09:43:18;;;;;;;28.35;18.60;;;;;;;13.94;60.59;145681.41;1815618;77;22648;-57
2021/10/20 09:45:54;;;;;;;29.95;17.12;;;;;;;14.06;60.18;145711.59;1809158;77;22219;-56
2021/10/20 09:48:40;;;;;;;31.05;18.35;;;;;;;14.22;59.86;145750.63;1824897;77;22603;-59
2021/10/20 09:51:21;;;;;;;27.15;15.75;;;;;;;14.31;59.52;145771.98;1852783;77;22246;-59
2021/10/20 09:54:28;;;;;;;28.57;15.40;;;;;;;14.27;59.33;145761.91;1834515;77;22597;-58
2021/10/20 09:57:35;;;;;;;25.20;16.37;;;;;;;14.28;59.54;145765.69;1826910;77;22619;-61
2021/10/20 10:00:16;;;;;;;29.45;17.32;;;;;;;14.42;59.29;145799.64;1853098;77;22156;-59
2021/10/20 10:02:53;;;;;;;24.30;15.43;;;;;;;14.52;58.98;145824.81;1834398;77;22160;-58
2021/10/20 10:05:29;;;;;;;25.82;15.38;;;;;;;14.61;58.42;145845.02;1834755;77;22216;-64
2021/10/20 10:08:05;;;;;;;36.63;17.02;;;;;;;14.72;58.08;145873.94;1834934;77;20207;-62
2021/10/20 10:11:01;;;;;;;29.48;17.80;;;;;;;14.88;57.69;145912.97;1819092;77;28434;-61
2021/10/20 10:13:50;;;;;;;30.02;17.60;;;;;;;14.93;57.02;145925.56;1819220;77;28014;-58
2021/10/20 10:16:27;;;;;;;30.10;15.68;;;;;;;14.94;57.04;145926.81;1843211;77;22567;-60
2021/10/20 10:19:23;;;;;;;27.55;17.37;;;;;;;14.92;57.13;145921.77;1837538;77;27980;-60
2021/10/20 10:21:58;;;;;;;24.40;15.95;;;;;;;14.93;57.01;145924.27;1853160;77;22135;-60
2021/10/20 10:24:36;;;;;;;27.98;15.48;;;;;;;14.90;57.10;145917.97;1853314;77;22652;-59
2021/10/20 10:27:12;;;;;;;28.50;16.12;;;;;;;14.90;57.13;145917.97;1834796;77;22124;-60
2021/10/20 10:30:18;;;;;;;26.10;16.73;;;;;;;14.94;57.17;145928.06;1853362;77;22601;-60
2021/10/20 10:33:01;;;;;;;32.38;17.95;;;;;;;14.92;57.35;145923.02;1834657;77;22247;-58
2021/10/20 10:35:42;;;;;;;31.15;19.07;;;;;;;14.89;57.33;145914.22;1853178;77;22621;-59
2021/10/20 10:38:22;;;;;;;30.23;18.82;;;;;;;14.85;57.53;145905.39;1837625;77;28075;-61
2021/10/20 10:41:23;;;;;;;30.45;17.95;;;;;;;14.93;57.39;145924.27;1834881;77;22132;-60
2021/10/20 10:44:08;;;;;;;28.17;17.07;;;;;;;14.98;57.32;145936.84;1834908;77;22140;-60
2021/10/20 10:47:19;;;;;;;27.87;18.32;;;;;;;14.95;57.42;145930.56;1812455;77;22172;-59
2021/10/20 10:50:12;;;;;;;33.45;16.95;;;;;;;14.85;57.78;145905.39;1853319;77;22135;-60
2021/10/20 10:52:58;;;;;;;27.60;17.15;;;;;;;14.87;57.81;145910.44;1824265;77;22175;-61
2021/10/20 10:55:35;;;;;;;26.55;17.15;;;;;;;14.92;57.69;145923.02;1807555;77;22228;-59
2021/10/20 10:58:18;;;;;;;30.50;16.87;;;;;;;15.06;57.45;145957.03;1831110;77;20466;-59
2021/10/20 11:00:53;;;;;;;27.62;17.10;;;;;;;15.24;56.89;146001.08;1819866;77;22172;-58
2021/10/20 11:03:28;;;;;;;31.17;17.48;;;;;;;15.35;56.66;146027.50;1831780;77;22250;-60
2021/10/20 11:06:23;;;;;;;30.55;17.87;;;;;;;15.49;56.43;146061.47;1819518;77;22132;-60
2021/10/20 11:09:02;;;;;;;27.35;17.82;;;;;;;15.60;56.02;146089.20;1820382;77;22202;-61
2021/10/20 11:11:35;;;;;;;35.55;18.45;;;;;;;15.64;55.87;146099.25;1821066;77;22195;-60
2021/10/20 11:14:21;;;;;;;32.38;16.60;;;;;;;15.70;55.73;146114.44;1829994;77;22184;-61
2021/10/20 11:17:17;;;;;;;27.22;16.97;;;;;;;15.69;55.39;146111.89;1817293;77;22196;-60
2021/10/20 11:20:36;;;;;;;25.57;16.42;;;;;;;15.60;55.69;146089.20;1809122;77;22245;-59
2021/10/20 11:23:19;;;;;;;26.42;16.05;;;;;;;15.52;55.69;146069.02;1805388;77;38516;-60
2021/10/20 11:26:20;;;;;;;26.85;14.40;;;;;;;15.48;55.82;146060.22;1808559;77;22215;-60
2021/10/20 11:29:21;;;;;;;25.05;14.65;;;;;;;15.46;55.87;146053.94;1832300;77;22651;-58
2021/10/20 11:32:22;;;;;;;22.62;13.55;;;;;;;15.47;55.96;146056.44;1827685;77;22251;-58
2021/10/20 11:35:36;;;;;;;22.55;13.05;;;;;;;15.42;55.84;146045.14;1819548;77;22215;-59
2021/10/20 11:38:18;;;;;;;24.57;13.55;;;;;;;15.40;55.94;146041.34;1827766;77;22135;-59
2021/10/20 11:41:19;;;;;;;24.35;13.30;;;;;;;15.43;55.91;146046.39;1833779;77;22224;-60
2021/10/20 11:44:19;;;;;;;21.17;12.07;;;;;;;15.37;55.87;146032.55;1819822;77;22168;-61
2021/10/20 11:47:16;;;;;;;28.05;14.10;;;;;;;15.33;55.90;146022.47;1853282;77;22212;-59
2021/10/20 11:50:19;;;;;;;21.82;13.53;;;;;;;15.33;56.03;146023.70;1853349;77;22594;-61
2021/10/20 11:53:04;;;;;;;26.30;14.38;;;;;;;15.39;55.61;146038.84;1853278;77;22595;-60
2021/10/20 11:55:44;;;;;;;22.95;13.88;;;;;;;15.44;55.55;146050.12;1834921;77;22149;-59
2021/10/20 11:58:38;;;;;;;37.83;19.73;;;;;;;15.45;55.36;146051.44;1834912;77;22253;-59
2021/10/20 12:01:13;;;;;;;33.02;16.95;;;;;;;15.41;55.38;146042.59;1834640;77;22613;-60
2021/10/20 12:04:07;;;;;;;23.62;13.58;;;;;;;15.41;55.51;146042.59;1815732;79;22183;-61
2021/10/20 12:07:12;;;;;;;22.80;13.70;;;;;;;15.41;55.40;146043.84;1853304;77;22155;-60
2021/10/20 12:09:53;;;;;;;27.13;16.45;;;;;;;15.45;55.37;146051.44;1799530;77;28073;-61
2021/10/20 12:12:48;;;;;;;25.00;14.30;;;;;;;15.52;55.11;146069.02;1853117;77;22163;-59
2021/10/20 12:15:42;;;;;;;17.92;11.78;;;;;;;15.52;54.98;146069.02;1834776;77;22160;-60
2021/10/20 12:18:17;;;;;;;24.80;12.65;;;;;;;15.56;54.87;146079.11;1834804;77;22140;-59
2021/10/20 12:20:56;;;;;;;22.70;10.72;;;;;;;15.53;54.54;146071.56;1832748;77;22266;-61
2021/10/20 12:24:03;;;;;;;23.32;11.38;;;;;;;15.46;54.32;146055.19;1833990;77;22202;-61
2021/10/20 12:27:00;;;;;;;24.45;13.22;;;;;;;15.36;54.56;146031.25;1833873;77;22199;-61
2021/10/20 12:29:43;;;;;;;24.05;11.63;;;;;;;15.36;54.61;146031.25;1853366;77;22159;-63
2021/10/20 12:32:28;;;;;;;20.08;11.28;;;;;;;15.36;54.71;146031.25;1834598;77;22160;-62
2021/10/20 12:35:14;;;;;;;21.62;11.30;;;;;;;15.40;54.76;146040.09;1833951;77;22202;-62
2021/10/20 12:38:06;;;;;;;18.20;11.22;;;;;;;15.43;54.73;146046.39;1834730;77;22149;-63
2021/10/20 12:41:10;;;;;;;20.88;11.83;;;;;;;15.40;54.76;146041.34;1853233;77;22179;-61
2021/10/20 12:44:11;;;;;;;19.90;12.65;;;;;;;15.36;54.79;146030.00;1833986;77;22255;-62
2021/10/20 12:47:06;;;;;;;19.45;11.28;;;;;;;15.32;54.79;146021.20;1853221;77;22163;-62
2021/10/20 12:50:04;;;;;;;20.37;13.40;;;;;;;15.29;55.02;146013.67;1837559;77;28467;-62
2021/10/20 12:52:59;;;;;;;21.73;12.58;;;;;;;15.29;55.17;146013.67;1853245;77;22187;-64
2021/10/20 12:55:34;;;;;;;26.55;14.13;;;;;;;15.20;55.58;145990.98;1853399;77;22151;-62
2021/10/20 12:58:17;;;;;;;35.92;14.38;;;;;;;15.14;55.77;145975.91;1853314;77;22141;-62
2021/10/20 13:01:11;;;;;;;31.00;16.05;;;;;;;15.11;55.92;145969.61;1834315;77;22844;-60
2021/10/20 13:03:46;;;;;;;26.17;14.15;;;;;;;15.09;56.02;145963.31;1833747;77;22625;-60
2021/10/20 13:06:20;;;;;;;23.10;13.80;;;;;;;15.07;56.11;145959.53;1834109;77;22132;-61
2021/10/20 13:08:55;;;;;;;27.45;13.22;;;;;;;15.09;56.22;145963.31;1833826;77;22574;-61
2021/10/20 13:11:31;;;;;;;25.72;12.50;;;;;;;15.11;56.22;145969.61;1834596;77;22187;-60
2021/10/20 13:14:06;;;;;;;24.12;12.80;;;;;;;15.12;56.14;145970.86;1853379;77;22155;-62
2021/10/20 13:17:00;;;;;;;22.40;13.30;;;;;;;15.12;56.26;145970.86;1834851;77;22574;-63
2021/10/20 13:19:36;;;;;;;28.02;14.40;;;;;;;15.15;56.15;145978.41;1819105;77;28440;-62
2021/10/20 13:22:11;;;;;;;20.48;12.70;;;;;;;15.21;56.00;145993.48;1834741;77;22246;-63
2021/10/20 13:24:52;;;;;;;24.05;11.95;;;;;;;15.23;55.82;145997.28;1833965;77;22163;-63
2021/10/20 13:27:29;;;;;;;24.77;14.07;;;;;;;15.25;55.75;146002.33;1853339;77;22218;-60
2021/10/20 13:30:14;;;;;;;24.80;14.15;;;;;;;15.27;55.71;146007.37;1833988;77;22197;-61
2021/10/20 13:33:15;;;;;;;20.32;12.70;;;;;;;15.26;55.51;146006.08;1833795;77;22175;-59
2021/10/20 13:36:12;;;;;;;31.15;14.20;;;;;;;15.24;55.54;146001.08;1853368;77;22131;-60
2021/10/20 13:39:12;;;;;;;34.70;14.03;;;;;;;15.20;55.61;145992.23;1833833;77;22587;-63
2021/10/20 13:41:53;;;;;;;24.63;13.50;;;;;;;15.19;55.74;145988.48;1833843;77;22188;-59
2021/10/20 13:44:47;;;;;;;28.10;14.13;;;;;;;15.18;55.85;145985.94;1853433;77;22207;-64
2021/10/20 13:47:22;;;;;;;29.15;14.47;;;;;;;15.16;55.87;145980.91;1833808;77;22140;-63
2021/10/20 13:50:05;;;;;;;26.12;15.55;;;;;;;15.14;56.10;145975.91;1790799;79;22362;-62
2021/10/20 13:52:59;;;;;;;23.73;15.72;;;;;;;15.14;56.28;145975.91;1818977;77;28020;-62
2021/10/20 13:55:34;;;;;;;26.75;13.80;;;;;;;15.10;56.48;145965.81;1834818;77;22151;-59
2021/10/20 13:58:34;;;;;;;26.33;15.05;;;;;;;15.00;56.89;145940.64;1833836;77;22239;-64
2021/10/20 14:01:15;;;;;;;19.95;13.55;;;;;;;14.91;57.17;145920.52;1833427;77;22140;-62
2021/10/20 14:03:56;;;;;;;23.83;15.08;;;;;;;14.88;57.40;145912.97;1834129;77;22156;-61
2021/10/20 14:06:56;;;;;;;25.25;14.10;;;;;;;14.84;57.62;145902.89;1853482;77;22156;-60
2021/10/20 14:09:50;;;;;;;23.38;14.90;;;;;;;14.81;57.83;145894.05;1853423;77;22278;-62
2021/10/20 14:12:44;;;;;;;27.07;15.70;;;;;;;14.77;57.99;145885.27;1853460;77;22165;-60
2021/10/20 14:15:19;;;;;;;26.37;15.23;;;;;;;14.73;58.15;145875.19;1834866;77;22140;-61
2021/10/20 14:17:54;;;;;;;35.75;16.48;;;;;;;14.70;58.34;145867.64;1853488;77;22614;-62
2021/10/20 14:20:48;;;;;;;27.27;15.80;;;;;;;14.68;58.52;145863.89;1834945;77;22171;-63
2021/10/20 14:23:23;;;;;;;30.80;17.35;;;;;;;14.65;58.65;145855.06;1853561;77;22127;-59
2021/10/20 14:26:16;;;;;;;26.75;16.42;;;;;;;14.62;58.81;145847.52;1834983;77;22124;-62
2021/10/20 14:28:51;;;;;;;35.65;18.00;;;;;;;14.60;58.91;145843.72;1834946;77;22285;-60
2021/10/20 14:31:27;;;;;;;35.65;17.50;;;;;;;14.57;59.02;145836.19;1834991;77;22176;-63
2021/10/20 14:34:02;;;;;;;29.20;18.20;;;;;;;14.57;59.15;145834.94;1819326;77;28035;-60
2021/10/20 14:36:57;;;;;;;25.62;17.07;;;;;;;14.59;59.10;145839.97;1834810;77;22153;-60
2021/10/20 14:39:34;;;;;;;26.23;16.12;;;;;;;14.58;59.17;145837.44;1834675;77;22188;-59
2021/10/20 14:42:28;;;;;;;25.88;16.32;;;;;;;14.57;59.21;145834.94;1834891;77;22551;-59
2021/10/20 14:45:11;;;;;;;27.85;16.40;;;;;;;14.57;59.20;145834.94;1853454;77;22151;-61
2021/10/20 14:48:14;;;;;;;29.42;16.55;;;;;;;14.56;59.26;145832.44;1853437;77;22151;-62
2021/10/20 14:50:49;;;;;;;29.18;17.17;;;;;;;14.54;59.31;145828.64;1837712;77;27965;-60
2021/10/20 14:53:24;;;;;;;39.85;16.93;;;;;;;14.56;59.26;145833.69;1853467;77;22232;-60
2021/10/20 14:55:59;;;;;;;28.40;17.35;;;;;;;14.57;59.20;145834.94;1834946;77;22546;-62
2021/10/20 14:58:34;;;;;;;26.62;16.77;;;;;;;14.57;59.17;145834.94;1834970;77;22168;-61
2021/10/20 15:01:09;;;;;;;30.35;16.25;;;;;;;14.54;59.24;145828.64;1834926;77;22156;-62
2021/10/20 15:04:06;;;;;;;25.68;16.57;;;;;;;14.53;59.31;145826.14;1853568;77;22127;-62
2021/10/20 15:06:40;;;;;;;30.88;16.75;;;;;;;14.51;59.26;145822.31;1834934;77;22551;-60
2021/10/20 15:09:15;;;;;;;29.75;17.42;;;;;;;14.51;59.25;145822.31;1834953;77;22133;-62
2021/10/20 15:11:50;;;;;;;35.98;20.82;;;;;;;14.50;59.33;145819.81;1853502;77;22123;-63
2021/10/20 15:14:28;;;;;;;35.90;18.20;;;;;;;14.48;59.40;145814.77;1834955;77;22193;-60
2021/10/20 15:17:02;;;;;;;41.90;20.00;;;;;;;14.45;59.45;145807.22;1834970;77;22148;-59
2021/10/20 15:22:18;;;;;;;31.35;19.15;;;;;;;14.41;59.53;145795.89;1853439;77;22614;-62
2021/10/20 15:24:51;;;;;;;34.05;19.17;;;;;;;14.38;59.67;145789.61;1853452;77;22132;-60
2021/10/20 15:27:26;;;;;;;33.70;18.70;;;;;;;14.35;59.80;145782.06;1834933;77;22129;-62
2021/10/20 15:30:01;;;;;;;34.95;18.87;;;;;;;14.33;59.82;145778.28;1834952;77;22128;-62
2021/10/20 15:32:36;;;;;;;31.90;20.25;;;;;;;14.32;59.90;145774.48;1837763;77;27998;-62
2021/10/20 15:35:31;;;;;;;28.07;17.02;;;;;;;14.36;59.76;145784.56;1834921;77;22160;-60
2021/10/20 15:38:06;;;;;;;30.37;17.50;;;;;;;14.34;59.78;145779.53;1819380;77;28032;-63
2021/10/20 15:41:00;;;;;;;26.60;15.75;;;;;;;14.38;59.67;145789.61;1853468;77;22123;-63
2021/10/20 15:43:38;;;;;;;29.72;17.00;;;;;;;14.37;59.63;145787.06;1834956;77;22136;-62
2021/10/20 15:46:14;;;;;;;31.15;16.87;;;;;;;14.37;59.56;145785.81;1834924;77;22132;-62
2021/10/20 15:49:09;;;;;;;30.52;17.27;;;;;;;14.36;59.57;145784.56;1835022;77;22574;-61
2021/10/20 15:52:04;;;;;;;26.45;16.15;;;;;;;14.35;59.58;145782.06;1834885;77;22160;-59
2021/10/20 15:54:39;;;;;;;28.87;17.35;;;;;;;14.34;59.58;145780.78;1837762;77;28416;-61
2021/10/20 15:57:34;;;;;;;26.73;17.60;;;;;;;14.36;59.53;145784.56;1853444;77;22148;-61
2021/10/20 16:00:10;;;;;;;31.97;18.70;;;;;;;14.34;59.57;145779.53;1837784;77;28421;-62
2021/10/20 16:03:06;;;;;;;33.60;17.98;;;;;;;14.35;59.46;145782.06;1853439;77;22158;-60
2021/10/20 16:06:07;;;;;;;35.43;18.70;;;;;;;14.30;59.67;145769.48;1853429;77;22180;-61
2021/10/20 16:08:42;;;;;;;31.05;19.12;;;;;;;14.27;59.74;145761.91;1819309;77;28420;-61
2021/10/20 16:11:17;;;;;;;38.67;18.92;;;;;;;14.29;59.67;145766.94;1834857;77;22132;-59
2021/10/20 16:14:00;;;;;;;33.60;19.05;;;;;;;14.27;59.57;145761.91;1853496;77;22176;-61
2021/10/20 16:16:35;;;;;;;38.85;20.00;;;;;;;14.26;59.70;145759.41;1853461;77;22274;-62
2021/10/20 16:19:29;;;;;;;36.33;19.70;;;;;;;14.26;59.61;145759.41;1843277;78;22136;-61
2021/10/20 16:22:22;;;;;;;34.83;19.90;;;;;;;14.25;59.58;145758.16;1853411;77;22156;-62
2021/10/20 16:24:58;;;;;;;34.27;19.37;;;;;;;14.26;59.60;145759.41;1853445;77;22190;-61
2021/10/20 16:27:53;;;;;;;32.42;20.32;;;;;;;14.26;59.42;145759.41;1819205;77;27993;-62
2021/10/20 16:30:30;;;;;;;35.60;18.85;;;;;;;14.29;59.25;145766.94;1834653;77;22188;-62
2021/10/20 16:33:06;;;;;;;33.38;18.82;;;;;;;14.28;59.08;145764.45;1853414;77;22131;-63
2021/10/20 16:35:59;;;;;;;32.80;18.65;;;;;;;14.27;59.00;145761.91;1834943;77;22152;-59
2021/10/20 16:38:36;;;;;;;26.60;16.77;;;;;;;14.26;58.91;145759.41;1853482;77;22156;-61
2021/10/20 16:41:36;;;;;;;30.43;17.25;;;;;;;14.25;58.78;145756.91;1833995;77;22608;-62
2021/10/20 16:44:11;;;;;;;29.55;17.37;;;;;;;14.21;58.80;145746.83;1819340;77;28436;-60
2021/10/20 16:46:46;;;;;;;31.30;18.30;;;;;;;14.22;58.67;145750.63;1834930;77;22571;-60
2021/10/20 16:49:21;;;;;;;28.52;17.27;;;;;;;14.20;58.57;145745.58;1834845;77;22155;-61
2021/10/20 16:51:56;;;;;;;28.05;17.05;;;;;;;14.16;58.69;145734.25;1834892;77;22168;-59
2021/10/20 16:54:31;;;;;;;29.50;17.20;;;;;;;14.12;58.64;145725.47;1853436;77;22174;-62
2021/10/20 16:57:11;;;;;;;26.42;17.17;;;;;;;14.11;58.69;145724.17;1853492;77;22609;-60
2021/10/20 16:59:47;;;;;;;26.65;16.90;;;;;;;14.10;58.60;145720.42;1834945;77;22153;-63
2021/10/20 17:02:21;;;;;;;30.57;16.42;;;;;;;14.13;58.42;145726.72;1834921;77;22192;-60
2021/10/20 17:04:56;;;;;;;29.05;16.25;;;;;;;14.14;58.27;145729.22;1834999;77;22128;-60
2021/10/20 17:07:36;;;;;;;30.37;15.13;;;;;;;14.16;58.05;145735.50;1834873;77;22129;-63
2021/10/20 17:10:13;;;;;;;28.73;16.07;;;;;;;14.20;57.89;145744.33;1853409;77;22132;-61